createdAt,value
2022-08-02T00:01:18.478Z,19.40
2022-08-02T00:03:45.360Z,19.40
2022-08-02T00:06:12.592Z,19.40
2022-08-02T00:08:39.366Z,19.40
2022-08-02T00:11:06.111Z,19.40
2022-08-02T00:13:33.079Z,19.40
2022-08-02T00:15:59.740Z,19.40
2022-08-02T00:18:26.388Z,19.40
2022-08-02T00:20:53.061Z,19.40
2022-08-02T00:23:20.125Z,19.40
2022-08-02T00:25:54.877Z,19.40
2022-08-02T00:28:27.172Z,19.30
2022-08-02T00:30:55.089Z,19.30
2022-08-02T00:36:02.107Z,19.30
2022-08-02T00:38:28.729Z,19.30
2022-08-02T00:40:58.170Z,19.30
2022-08-02T00:43:25.133Z,19.30
2022-08-02T00:46:02.068Z,19.20
2022-08-02T00:48:30.320Z,19.30
2022-08-02T00:50:57.238Z,19.20
2022-08-02T00:53:23.874Z,19.20
2022-08-02T00:55:50.475Z,19.20
2022-08-02T00:58:17.113Z,19.20
2022-08-02T01:00:44.044Z,19.20
2022-08-02T01:03:13.610Z,19.20
2022-08-02T01:06:10.347Z,19.20
2022-08-02T01:08:29.346Z,19.20
2022-08-02T01:10:58.532Z,19.20
2022-08-02T01:13:27.470Z,19.10
2022-08-02T01:16:14.902Z,19.20
2022-08-02T01:18:45.542Z,19.10
2022-08-02T01:21:46.318Z,19.10
2022-08-02T01:24:42.232Z,19.10
2022-08-02T01:27:20.452Z,19.10
2022-08-02T01:29:53.689Z,19.10
2022-08-02T01:32:27.046Z,19.00
2022-08-02T01:35:07.309Z,19.00
2022-08-02T01:37:53.173Z,19.00
2022-08-02T01:40:27.771Z,18.90
2022-08-02T01:42:56.152Z,18.90
2022-08-02T01:45:30.438Z,18.90
2022-08-02T01:47:58.625Z,18.90
2022-08-02T01:50:33.551Z,18.80
2022-08-02T01:53:05.975Z,18.80
2022-08-02T01:55:57.874Z,18.80
2022-08-02T01:58:29.894Z,18.80
2022-08-02T02:00:59.069Z,18.70
2022-08-02T02:03:27.364Z,18.70
2022-08-02T02:05:57.318Z,18.70
2022-08-02T02:08:31.054Z,18.70
2022-08-02T02:12:06.469Z,18.70
2022-08-02T02:13:47.320Z,18.60
2022-08-02T02:16:15.385Z,18.60
2022-08-02T02:18:43.811Z,18.60
2022-08-02T02:21:15.098Z,18.60
2022-08-02T02:23:43.511Z,18.60
2022-08-02T02:26:13.379Z,18.50
2022-08-02T02:28:41.048Z,18.60
2022-08-02T02:31:11.768Z,18.50
2022-08-02T02:33:46.865Z,18.50
2022-08-02T02:36:16.505Z,18.50
2022-08-02T02:38:44.145Z,18.50
2022-08-02T02:41:12.739Z,18.40
2022-08-02T02:43:41.572Z,18.40
2022-08-02T02:46:09.922Z,18.40
2022-08-02T02:48:37.487Z,18.40
2022-08-02T02:51:06.400Z,18.40
2022-08-02T02:54:30.778Z,18.30
2022-08-02T02:56:23.704Z,18.30
2022-08-02T02:58:50.939Z,18.30
2022-08-02T03:01:55.970Z,18.30
2022-08-02T03:06:59.658Z,18.30
2022-08-02T03:09:26.935Z,18.20
2022-08-02T03:11:54.919Z,18.20
2022-08-02T03:14:22.438Z,18.20
2022-08-02T03:16:51.788Z,18.20
2022-08-02T03:19:20.035Z,18.20
2022-08-02T03:21:47.854Z,18.20
2022-08-02T03:24:28.286Z,18.20
2022-08-02T03:26:56.052Z,18.20
2022-08-02T03:29:22.803Z,18.20
2022-08-02T03:31:49.800Z,18.20
2022-08-02T03:34:16.647Z,18.10
2022-08-02T03:36:43.852Z,18.10
2022-08-02T03:39:12.527Z,18.10
2022-08-02T03:41:39.658Z,18.10
2022-08-02T03:44:07.689Z,18.10
2022-08-02T03:46:35.441Z,18.10
2022-08-02T03:49:02.899Z,18.10
2022-08-02T03:51:30.205Z,18.10
2022-08-02T03:53:57.252Z,18.10
2022-08-02T03:56:24.200Z,18.10
2022-08-02T03:58:50.993Z,18.00
2022-08-02T04:01:18.038Z,18.00
2022-08-02T04:03:44.796Z,18.10
2022-08-02T04:06:11.548Z,18.00
2022-08-02T04:08:38.981Z,18.00
2022-08-02T04:11:24.855Z,18.00
2022-08-02T04:13:52.003Z,18.00
2022-08-02T04:16:23.737Z,17.90
2022-08-02T04:18:57.021Z,17.90
2022-08-02T04:21:41.461Z,17.90
2022-08-02T04:24:18.886Z,17.90
2022-08-02T04:26:48.139Z,17.80
2022-08-02T04:29:18.242Z,17.80
2022-08-02T04:31:45.630Z,17.80
2022-08-02T04:34:15.803Z,17.80
2022-08-02T04:36:43.350Z,17.80
2022-08-02T04:39:13.691Z,17.80
2022-08-02T04:41:44.546Z,17.70
2022-08-02T04:44:12.492Z,17.70
2022-08-02T04:46:40.156Z,17.70
2022-08-02T04:49:07.356Z,17.70
2022-08-02T04:51:41.959Z,17.70
2022-08-02T04:54:10.411Z,17.70
2022-08-02T04:56:38.865Z,17.70
2022-08-02T04:59:06.520Z,17.70
2022-08-02T05:01:33.555Z,17.70
2022-08-02T05:04:00.197Z,17.60
2022-08-02T05:06:26.906Z,17.70
2022-08-02T05:08:53.929Z,17.70
2022-08-02T05:11:22.301Z,17.70
2022-08-02T05:13:58.588Z,17.70
2022-08-02T05:16:30.769Z,17.70
2022-08-02T05:19:02.707Z,17.70
2022-08-02T05:21:31.297Z,17.60
2022-08-02T05:23:58.009Z,17.70
2022-08-02T05:26:24.746Z,17.70
2022-08-02T05:28:51.408Z,17.70
2022-08-02T05:31:18.261Z,17.70
2022-08-02T05:39:25.226Z,17.70
2022-08-02T05:41:58.808Z,17.70
2022-08-02T05:44:25.449Z,17.70
2022-08-02T05:46:52.034Z,17.70
2022-08-02T05:49:18.752Z,17.70
2022-08-02T05:52:04.720Z,17.70
2022-08-02T05:54:48.254Z,17.80
2022-08-02T05:57:26.629Z,17.70
2022-08-02T06:00:13.779Z,17.80
2022-08-02T06:02:43.491Z,17.80
2022-08-02T06:05:16.232Z,17.80
2022-08-02T06:07:44.806Z,17.80
2022-08-02T06:10:13.652Z,17.80
2022-08-02T06:13:06.110Z,17.80
2022-08-02T06:15:33.810Z,17.90
2022-08-02T06:18:09.632Z,17.90
2022-08-02T06:23:13.780Z,18.00
2022-08-02T06:25:49.926Z,18.00
2022-08-02T06:28:19.843Z,18.10
2022-08-02T06:30:46.593Z,18.10
2022-08-02T06:33:13.913Z,18.20
2022-08-02T06:35:51.113Z,18.20
2022-08-02T06:38:32.389Z,18.30
2022-08-02T06:41:14.965Z,18.30
2022-08-02T06:43:54.636Z,18.30
2022-08-02T06:46:57.193Z,18.50
2022-08-02T06:49:08.442Z,18.50
2022-08-02T06:51:35.163Z,18.60
2022-08-02T06:54:01.874Z,18.60
2022-08-02T06:56:28.559Z,18.70
2022-08-02T06:58:55.184Z,18.70
2022-08-02T07:01:21.985Z,18.80
2022-08-02T07:03:48.721Z,18.80
2022-08-02T07:06:15.341Z,18.90
2022-08-02T07:08:50.909Z,19.00
2022-08-02T07:11:26.268Z,19.10
2022-08-02T07:13:52.923Z,19.10
2022-08-02T07:16:19.606Z,19.20
2022-08-02T07:18:46.820Z,19.30
2022-08-02T07:21:13.488Z,19.40
2022-08-02T07:23:40.139Z,19.50
2022-08-02T07:26:06.900Z,19.60
2022-08-02T07:28:33.670Z,19.70
2022-08-02T07:31:00.341Z,19.80
2022-08-02T07:33:37.692Z,19.90
2022-08-02T07:36:05.476Z,20.10
2022-08-02T07:38:34.859Z,20.30
2022-08-02T07:41:03.535Z,20.50
2022-08-02T07:43:30.623Z,20.60
2022-08-02T07:46:00.686Z,20.70
2022-08-02T07:48:28.048Z,20.90
2022-08-02T07:50:54.690Z,21.10
2022-08-02T07:53:50.117Z,21.30
2022-08-02T07:56:07.934Z,21.50
2022-08-02T07:58:34.709Z,21.70
2022-08-02T08:01:01.375Z,21.90
2022-08-02T08:03:28.244Z,22.00
2022-08-02T08:05:54.861Z,22.20
2022-08-02T08:08:21.566Z,22.40
2022-08-02T08:10:48.832Z,22.60
2022-08-02T08:13:16.149Z,22.70
2022-08-02T08:15:52.027Z,22.90
2022-08-02T08:18:20.689Z,23.10
2022-08-02T08:20:47.339Z,23.30
2022-08-02T08:23:14.087Z,23.50
2022-08-02T08:25:41.358Z,23.60
2022-08-02T08:28:09.270Z,23.80
2022-08-02T08:30:36.535Z,23.90
2022-08-02T08:33:04.344Z,24.10
2022-08-02T08:38:07.274Z,24.30
2022-08-02T08:40:34.961Z,24.50
2022-08-02T08:43:01.640Z,24.60
2022-08-02T08:45:28.577Z,24.60
2022-08-02T08:48:07.868Z,24.70
2022-08-02T08:50:37.080Z,24.90
2022-08-02T08:53:08.267Z,25.00
2022-08-02T08:55:36.760Z,25.10
2022-08-02T08:58:04.906Z,25.20
2022-08-02T09:00:33.273Z,25.30
2022-08-02T09:03:05.113Z,25.50
2022-08-02T09:05:34.062Z,25.60
2022-08-02T09:08:01.045Z,25.80
2022-08-02T09:10:42.096Z,25.90
2022-08-02T09:13:38.866Z,26.10
2022-08-02T09:16:11.498Z,26.30
2022-08-02T09:18:46.138Z,26.50
2022-08-02T09:21:15.063Z,26.60
2022-08-02T09:23:45.165Z,26.70
2022-08-02T09:26:17.269Z,27.00
2022-08-02T09:28:46.712Z,27.10
2022-08-02T09:31:14.862Z,27.20
2022-08-02T09:33:43.197Z,27.30
2022-08-02T09:36:15.094Z,27.40
2022-08-02T09:38:53.824Z,27.60
2022-08-02T09:41:26.177Z,27.70
2022-08-02T09:44:05.184Z,27.80
2022-08-02T09:46:44.148Z,28.00
2022-08-02T09:49:18.684Z,28.10
2022-08-02T09:51:45.563Z,28.30
2022-08-02T09:54:17.730Z,28.50
2022-08-02T09:56:50.054Z,28.60
2022-08-02T09:59:18.289Z,28.70
2022-08-02T10:01:51.226Z,28.90
2022-08-02T10:04:31.637Z,29.00
2022-08-02T10:06:59.895Z,29.10
2022-08-02T10:09:28.878Z,29.20
2022-08-02T10:11:55.891Z,29.40
2022-08-02T10:14:23.452Z,29.50
2022-08-02T10:16:53.284Z,29.50
2022-08-02T10:19:59.750Z,29.60
2022-08-02T10:22:10.770Z,29.70
2022-08-02T10:24:39.478Z,29.70
2022-08-02T10:27:19.806Z,29.80
2022-08-02T10:29:55.043Z,29.90
2022-08-02T10:32:39.456Z,30.00
2022-08-02T10:35:25.843Z,30.10
2022-08-02T10:37:56.249Z,30.20
2022-08-02T10:40:23.200Z,30.30
2022-08-02T10:42:52.228Z,30.40
2022-08-02T10:45:21.682Z,30.40
2022-08-02T10:48:03.870Z,30.60
2022-08-02T10:50:45.801Z,30.60
2022-08-02T10:53:33.579Z,30.70
2022-08-02T10:56:03.022Z,30.90
2022-08-02T10:58:34.451Z,31.00
2022-08-02T11:01:06.607Z,31.10
2022-08-02T11:03:39.641Z,31.20
2022-08-02T11:06:08.117Z,31.30
2022-08-02T11:08:35.287Z,31.40
2022-08-02T11:11:17.112Z,31.50
2022-08-02T11:14:07.602Z,31.60
2022-08-02T11:16:56.041Z,31.60
2022-08-02T11:19:28.398Z,31.70
2022-08-02T11:22:11.552Z,31.80
2022-08-02T11:24:39.846Z,31.90
2022-08-02T11:27:17.606Z,32.00
2022-08-02T11:32:31.212Z,32.20
2022-08-02T11:34:59.036Z,32.30
2022-08-02T11:37:47.480Z,32.40
2022-08-02T11:40:19.635Z,32.50
2022-08-02T11:42:50.640Z,32.60
2022-08-02T11:45:21.505Z,32.60
2022-08-02T11:47:51.231Z,32.70
2022-08-02T11:50:20.616Z,32.70
2022-08-02T11:52:56.848Z,32.80
2022-08-02T11:55:31.143Z,32.80
2022-08-02T11:58:05.447Z,32.80
2022-08-02T12:00:32.855Z,32.80
2022-08-02T12:02:59.850Z,32.90
2022-08-02T12:06:04.561Z,32.90
2022-08-02T12:08:19.018Z,32.90
2022-08-02T12:10:49.771Z,32.90
2022-08-02T12:13:16.388Z,32.90
2022-08-02T12:15:45.430Z,33.00
2022-08-02T12:18:36.619Z,33.00
2022-08-02T12:21:04.552Z,33.10
2022-08-02T12:23:31.240Z,33.10
2022-08-02T12:26:05.493Z,33.20
2022-08-02T12:28:39.559Z,33.30
2022-08-02T12:31:13.223Z,33.40
2022-08-02T12:33:50.193Z,33.40
2022-08-02T12:36:27.863Z,33.50
2022-08-02T12:38:56.360Z,33.60
2022-08-02T12:41:30.530Z,33.60
2022-08-02T12:43:59.002Z,33.80
2022-08-02T12:46:25.879Z,33.80
2022-08-02T12:49:16.496Z,33.90
2022-08-02T12:51:56.440Z,34.00
2022-08-02T12:54:38.409Z,34.10
2022-08-02T12:57:16.603Z,34.20
2022-08-02T12:59:48.868Z,34.20
2022-08-02T13:02:16.665Z,34.30
2022-08-02T13:04:49.836Z,34.40
2022-08-02T13:07:17.628Z,34.50
2022-08-02T13:09:48.337Z,34.50
2022-08-02T13:12:15.990Z,34.60
2022-08-02T13:14:43.100Z,34.60
2022-08-02T13:17:10.455Z,34.70
2022-08-02T13:19:38.528Z,34.70
2022-08-02T13:22:06.237Z,34.70
2022-08-02T13:24:40.695Z,34.80
2022-08-02T13:27:22.334Z,34.80
2022-08-02T13:29:53.333Z,34.90
2022-08-02T13:32:20.466Z,34.90
2022-08-02T13:34:47.789Z,35.00
2022-08-02T13:37:15.142Z,35.00
2022-08-02T13:39:41.828Z,35.00
2022-08-02T13:42:08.604Z,35.00
2022-08-02T13:47:35.831Z,35.00
2022-08-02T13:50:04.188Z,35.00
2022-08-02T13:52:33.932Z,35.10
2022-08-02T13:55:00.646Z,35.10
2022-08-02T13:57:28.164Z,35.10
2022-08-02T13:59:59.037Z,35.10
2022-08-02T14:02:30.132Z,35.10
2022-08-02T14:04:57.174Z,35.10
2022-08-02T14:07:23.883Z,35.10
2022-08-02T14:09:50.554Z,35.20
2022-08-02T14:12:17.488Z,35.20
2022-08-02T14:14:44.459Z,35.20
2022-08-02T14:17:11.731Z,35.20
2022-08-02T14:19:38.410Z,35.20
2022-08-02T14:22:21.062Z,35.20
2022-08-02T14:24:47.739Z,35.20
2022-08-02T14:27:15.754Z,35.10
2022-08-02T14:29:42.493Z,35.10
2022-08-02T14:32:09.586Z,35.10
2022-08-02T14:37:11.480Z,35.10
2022-08-02T14:39:43.461Z,35.00
2022-08-02T14:42:24.813Z,35.00
2022-08-02T14:44:51.541Z,35.00
2022-08-02T14:47:18.241Z,35.00
2022-08-02T14:49:49.616Z,35.00
2022-08-02T14:52:19.444Z,34.90
2022-08-02T14:54:46.847Z,34.90
2022-08-02T14:57:13.976Z,34.90
2022-08-02T14:59:42.605Z,34.90
2022-08-02T15:02:13.072Z,34.80
2022-08-02T15:04:42.712Z,34.80
2022-08-02T15:07:10.757Z,34.70
2022-08-02T15:09:39.831Z,34.70
2022-08-02T15:12:07.894Z,34.70
2022-08-02T15:14:34.554Z,34.60
2022-08-02T15:17:01.313Z,34.60
2022-08-02T15:19:51.194Z,34.50
2022-08-02T15:22:19.268Z,34.50
2022-08-02T15:24:47.709Z,34.40
2022-08-02T15:27:15.313Z,34.40
2022-08-02T15:29:43.118Z,34.30
2022-08-02T15:32:10.248Z,34.30
2022-08-02T15:34:37.335Z,34.20
2022-08-02T15:37:04.179Z,34.10
2022-08-02T15:39:30.891Z,34.00
2022-08-02T15:41:57.653Z,34.00
2022-08-02T15:44:25.077Z,33.90
2022-08-02T15:46:53.311Z,33.80
2022-08-02T15:49:23.377Z,33.80
2022-08-02T15:51:54.244Z,33.70
2022-08-02T15:54:20.918Z,33.70
2022-08-02T15:56:47.802Z,33.60
2022-08-02T15:59:14.584Z,33.50
2022-08-02T16:01:48.093Z,33.40
2022-08-02T16:04:15.808Z,33.40
2022-08-02T16:06:42.931Z,33.30
2022-08-02T16:09:15.059Z,33.20
2022-08-02T16:11:41.785Z,33.10
2022-08-02T16:14:09.478Z,33.00
2022-08-02T16:16:36.963Z,32.90
2022-08-02T16:19:38.772Z,32.80
2022-08-02T16:21:53.070Z,32.60
2022-08-02T16:24:20.148Z,32.60
2022-08-02T16:29:26.143Z,32.30
2022-08-02T16:31:52.788Z,32.20
2022-08-02T16:34:19.993Z,32.10
2022-08-02T16:36:47.019Z,32.00
2022-08-02T16:39:13.980Z,31.90
2022-08-02T16:41:52.031Z,31.80
2022-08-02T16:44:26.753Z,31.70
2022-08-02T16:46:56.420Z,31.60
2022-08-02T16:50:04.993Z,31.50
2022-08-02T16:52:13.915Z,31.40
2022-08-02T16:54:40.560Z,31.20
2022-08-02T16:57:07.573Z,31.10
2022-08-02T16:59:42.707Z,31.10
2022-08-02T17:02:11.717Z,31.00
2022-08-02T17:04:44.706Z,30.90
2022-08-02T17:08:08.275Z,30.80
2022-08-02T17:10:04.348Z,30.70
2022-08-02T17:12:34.036Z,30.60
2022-08-02T17:17:46.357Z,30.50
2022-08-02T17:20:12.997Z,30.30
2022-08-02T17:22:40.108Z,30.20
2022-08-02T17:27:55.671Z,30.10
2022-08-02T17:35:52.417Z,29.90
2022-08-02T17:38:26.219Z,29.80
2022-08-02T17:40:54.668Z,29.70
2022-08-02T17:43:29.032Z,29.60
2022-08-02T17:46:00.078Z,29.60
2022-08-02T17:48:49.507Z,29.50
2022-08-02T17:52:15.314Z,29.40
2022-08-02T17:54:03.644Z,29.30
2022-08-02T17:56:30.383Z,29.30
2022-08-02T17:58:57.158Z,29.20
2022-08-02T18:01:26.713Z,29.10
2022-08-02T18:04:01.262Z,29.10
2022-08-02T18:06:28.211Z,29.00
2022-08-02T18:08:54.858Z,28.90
2022-08-02T18:11:52.043Z,28.90
2022-08-02T18:14:09.790Z,28.70
2022-08-02T18:16:37.263Z,28.70
2022-08-02T18:19:10.163Z,28.60
2022-08-02T18:21:45.511Z,28.60
2022-08-02T18:24:12.860Z,28.50
2022-08-02T18:26:41.191Z,28.40
2022-08-02T18:29:10.915Z,28.30
2022-08-02T18:31:40.233Z,28.20
2022-08-02T18:34:17.784Z,28.10
2022-08-02T18:36:47.652Z,28.10
2022-08-02T18:39:15.163Z,28.00
2022-08-02T18:41:44.251Z,28.00
2022-08-02T18:44:15.706Z,27.90
2022-08-02T18:46:43.165Z,27.80
2022-08-02T18:49:14.886Z,27.70
2022-08-02T18:51:45.378Z,27.70
2022-08-02T18:54:12.191Z,27.60
2022-08-02T18:56:39.659Z,27.60
2022-08-02T18:59:07.428Z,27.50
2022-08-02T19:01:39.505Z,27.50
2022-08-02T19:04:15.568Z,27.40
2022-08-02T19:06:53.901Z,27.30
2022-08-02T19:09:20.600Z,27.20
2022-08-02T19:11:50.272Z,27.20
2022-08-02T19:14:27.523Z,27.10
2022-08-02T19:16:56.653Z,27.00
2022-08-02T19:19:28.804Z,27.00
2022-08-02T19:22:17.711Z,26.90
2022-08-02T19:24:56.336Z,26.80
2022-08-02T19:27:32.964Z,26.70
2022-08-02T19:30:07.497Z,26.70
2022-08-02T19:35:29.778Z,26.60
2022-08-02T19:38:06.169Z,26.50
2022-08-02T19:40:33.414Z,26.40
2022-08-02T19:46:15.600Z,26.20
2022-08-02T19:48:44.097Z,26.20
2022-08-02T19:51:13.252Z,26.10
2022-08-02T19:53:46.730Z,26.10
2022-08-02T19:56:24.725Z,26.00
2022-08-02T19:59:00.400Z,25.90
2022-08-02T20:01:37.242Z,25.80
2022-08-02T20:04:13.377Z,25.80
2022-08-02T20:06:47.650Z,25.70
2022-08-02T20:09:21.566Z,25.60
2022-08-02T20:11:54.586Z,25.60
2022-08-02T20:17:15.248Z,25.50
2022-08-02T20:19:42.130Z,25.40
2022-08-02T20:22:13.979Z,25.30
2022-08-02T20:27:56.535Z,25.20
2022-08-02T20:33:22.032Z,25.10
2022-08-02T20:35:51.474Z,25.00
2022-08-02T20:38:20.295Z,25.00
2022-08-02T20:40:51.970Z,24.90
2022-08-02T20:43:18.611Z,24.80
2022-08-02T20:45:46.372Z,24.80
2022-08-02T20:48:15.565Z,24.80
2022-08-02T20:50:49.246Z,24.70
2022-08-02T20:53:23.486Z,24.70
2022-08-02T20:55:53.962Z,24.70
2022-08-02T20:58:27.017Z,24.60
2022-08-02T21:00:58.596Z,24.60
2022-08-02T21:03:25.608Z,24.50
2022-08-02T21:06:08.047Z,24.50
2022-08-02T21:08:40.657Z,24.40
2022-08-02T21:11:09.464Z,24.40
2022-08-02T21:13:47.391Z,24.30
2022-08-02T21:16:26.284Z,24.30
2022-08-02T21:18:59.698Z,24.20
2022-08-02T21:21:27.285Z,24.10
2022-08-02T21:23:54.983Z,24.10
2022-08-02T21:26:28.599Z,24.10
2022-08-02T21:29:00.820Z,24.10
2022-08-02T21:31:32.070Z,24.00
2022-08-02T21:34:00.875Z,24.00
2022-08-02T21:36:33.797Z,23.90
2022-08-02T21:39:08.979Z,23.90
2022-08-02T21:41:39.406Z,23.80
2022-08-02T21:44:13.720Z,23.80
2022-08-02T21:46:44.551Z,23.70
2022-08-02T21:49:16.265Z,23.70
2022-08-02T21:51:43.620Z,23.70
2022-08-02T21:54:18.444Z,23.60
2022-08-02T21:56:48.100Z,23.60
2022-08-02T21:59:16.814Z,23.50
2022-08-02T22:01:53.001Z,23.50
2022-08-02T22:04:21.551Z,23.50
2022-08-02T22:06:49.141Z,23.40
2022-08-02T22:09:42.181Z,23.40
2022-08-02T22:12:05.191Z,23.30
2022-08-02T22:14:36.792Z,23.30
2022-08-02T22:17:08.697Z,23.30
2022-08-02T22:19:36.418Z,23.20
2022-08-02T22:22:03.119Z,23.20
2022-08-02T22:24:30.503Z,23.20
2022-08-02T22:26:57.655Z,23.10
2022-08-02T22:29:25.101Z,23.10
2022-08-02T22:31:52.032Z,23.10
2022-08-02T22:34:36.756Z,23.00
2022-08-02T22:37:05.728Z,23.00
2022-08-02T22:39:33.933Z,22.90
2022-08-02T22:42:05.535Z,22.90
2022-08-02T22:44:33.893Z,22.90
2022-08-02T22:47:07.290Z,22.80
2022-08-02T22:49:51.573Z,22.80
2022-08-02T22:52:21.720Z,22.70
2022-08-02T22:54:48.773Z,22.70
2022-08-02T22:57:17.588Z,22.70
2022-08-02T22:58:39.111Z,29.90
2022-08-02T22:58:48.532Z,26.60
2022-08-02T22:59:05.753Z,25.50
2022-08-02T22:59:06.306Z,25.10
2022-08-02T22:59:58.013Z,22.60
2022-08-02T23:02:24.996Z,22.60
2022-08-02T23:04:52.133Z,22.60
2022-08-02T23:07:18.755Z,22.50
2022-08-02T23:09:45.405Z,22.50
2022-08-02T23:12:12.054Z,22.40
2022-08-02T23:14:38.745Z,22.40
2022-08-02T23:17:23.936Z,22.40
2022-08-02T23:19:50.642Z,22.40
2022-08-02T23:22:30.127Z,22.40
2022-08-02T23:25:00.307Z,22.40
2022-08-02T23:27:27.122Z,22.30
2022-08-02T23:29:53.815Z,22.30
2022-08-02T23:32:22.940Z,22.20
2022-08-02T23:34:57.076Z,22.20
2022-08-02T23:37:24.585Z,22.20
2022-08-02T23:39:51.529Z,22.20
2022-08-02T23:42:18.549Z,22.10
2022-08-02T23:44:45.473Z,22.10
2022-08-02T23:47:12.156Z,22.10
2022-08-02T23:49:38.856Z,22.10
2022-08-02T23:52:05.533Z,22.00
2022-08-02T23:54:32.228Z,22.00
2022-08-02T23:56:59.255Z,22.00
2022-08-02T23:59:25.969Z,22.00
